< < Back
Terminal Aerodrome Forecast


Current Version              Previous Versions:   1  2  3  4  5  6  7  8  9  

Terminal Aerodrome Forecast

943
FTUS42 KCAE 271300 AAA
TAFAGS
TAF AMD
KAGS 271310Z 2713/2812 30015G25KT P6SM FEW050
     FM272300 32009KT P6SM SKC
     FM280700 33003KT P6SM SKC=



Latest METAR

349
SAUS70 KWBC 271700 RRL
MTRAGS
METAR KAGS 271653Z 31015G28KT 10SM FEW055 12/M02 A3019 RMK AO2 PK WND
30030/1615 SLP224 T01171022


USA.gov is the U.S. government's official web portal to all federal, state and local government web resources and services.